sensor_id;sensor_type;location;lat;lon;timestamp;pressure;altitude;pressure_sealevel;temperature;humidity
70458;BME280;57919;56.194;95.716;2023-02-11T00:02:20;101151.53;;;-27.03;58.03
70458;BME280;57919;56.194;95.716;2023-02-11T00:12:22;101141.56;;;-27.56;57.33
70458;BME280;57919;56.194;95.716;2023-02-11T00:22:24;101166.09;;;-27.75;57.91
70458;BME280;57919;56.194;95.716;2023-02-11T00:32:26;101204.44;;;-27.64;58.42
70458;BME280;57919;56.194;95.716;2023-02-11T00:42:28;101226.31;;;-27.47;58.16
70458;BME280;57919;56.194;95.716;2023-02-11T00:52:31;101215.63;;;-27.34;58.32
70458;BME280;57919;56.194;95.716;2023-02-11T01:02:33;101245.34;;;-27.25;57.82
70458;BME280;57919;56.194;95.716;2023-02-11T01:12:35;101265.09;;;-27.58;57.25
70458;BME280;57919;56.194;95.716;2023-02-11T01:22:37;101263.88;;;-27.80;57.43
70458;BME280;57919;56.194;95.716;2023-02-11T01:32:40;101273.81;;;-27.65;57.88
70458;BME280;57919;56.194;95.716;2023-02-11T01:42:43;101259.34;;;-27.74;57.36
70458;BME280;57919;56.194;95.716;2023-02-11T01:52:45;101280.91;;;-27.52;58.41
70458;BME280;57919;56.194;95.716;2023-02-11T02:03:09;101302.94;;;-27.25;57.59
70458;BME280;57919;56.194;95.716;2023-02-11T02:13:14;101297.78;;;-27.08;57.90
70458;BME280;57919;56.194;95.716;2023-02-11T02:43:45;101312.06;;;-25.58;58.40
70458;BME280;57919;56.194;95.716;2023-02-11T03:04:28;101330.75;;;-23.86;55.48
70458;BME280;57919;56.194;95.716;2023-02-11T03:14:34;101327.56;;;-23.84;55.69
70458;BME280;57919;56.194;95.716;2023-02-11T03:24:38;101335.88;;;-23.22;54.90
70458;BME280;57919;56.194;95.716;2023-02-11T03:34:49;101350.91;;;-23.37;54.33
70458;BME280;57919;56.194;95.716;2023-02-11T03:44:59;101353.00;;;-21.99;56.27
70458;BME280;57919;56.194;95.716;2023-02-11T03:55:13;101366.88;;;-21.74;54.23
70458;BME280;57919;56.194;95.716;2023-02-11T04:05:16;101351.69;;;-21.24;54.04
70458;BME280;57919;56.194;95.716;2023-02-11T04:15:19;101371.00;;;-20.44;53.33
70458;BME280;57919;56.194;95.716;2023-02-11T04:25:21;101353.19;;;-20.41;52.72
70458;BME280;57919;56.194;95.716;2023-02-11T04:35:23;101365.03;;;-20.18;52.37
70458;BME280;57919;56.194;95.716;2023-02-11T04:45:24;101385.78;;;-21.02;51.02
70458;BME280;57919;56.194;95.716;2023-02-11T04:55:26;101389.28;;;-20.15;53.67
70458;BME280;57919;56.194;95.716;2023-02-11T05:05:28;101395.75;;;-19.44;52.57
70458;BME280;57919;56.194;95.716;2023-02-11T05:15:30;101378.19;;;-18.83;52.75
70458;BME280;57919;56.194;95.716;2023-02-11T05:25:32;101372.56;;;-19.31;52.07
70458;BME280;57919;56.194;95.716;2023-02-11T05:35:34;101382.88;;;-19.04;52.21
70458;BME280;57919;56.194;95.716;2023-02-11T05:45:36;101372.81;;;-18.58;52.77
70458;BME280;57919;56.194;95.716;2023-02-11T05:55:38;101374.09;;;-18.24;52.26
70458;BME280;57919;56.194;95.716;2023-02-11T06:05:42;101383.63;;;-17.80;52.86
70458;BME280;57919;56.194;95.716;2023-02-11T06:15:44;101368.25;;;-17.18;52.39
70458;BME280;57919;56.194;95.716;2023-02-11T06:26:00;101357.22;;;-16.69;52.59
70458;BME280;57919;56.194;95.716;2023-02-11T06:36:08;101367.44;;;-16.23;53.00
70458;BME280;57919;56.194;95.716;2023-02-11T06:46:12;101359.50;;;-16.26;51.53
70458;BME280;57919;56.194;95.716;2023-02-11T06:56:19;101365.16;;;-16.33;52.53
70458;BME280;57919;56.194;95.716;2023-02-11T07:06:23;101360.53;;;-16.39;51.80
70458;BME280;57919;56.194;95.716;2023-02-11T07:16:29;101370.16;;;-16.69;52.33
70458;BME280;57919;56.194;95.716;2023-02-11T07:26:32;101340.47;;;-16.75;53.94
70458;BME280;57919;56.194;95.716;2023-02-11T07:36:33;101364.66;;;-16.58;54.67
70458;BME280;57919;56.194;95.716;2023-02-11T07:46:35;101355.44;;;-16.37;55.17
70458;BME280;57919;56.194;95.716;2023-02-11T07:56:38;101340.53;;;-16.09;56.13
70458;BME280;57919;56.194;95.716;2023-02-11T08:06:41;101348.94;;;-15.80;56.60
70458;BME280;57919;56.194;95.716;2023-02-11T08:16:43;101354.50;;;-15.55;56.48
70458;BME280;57919;56.194;95.716;2023-02-11T08:26:45;101366.25;;;-15.27;57.20
70458;BME280;57919;56.194;95.716;2023-02-11T08:36:47;101376.72;;;-14.90;57.14
70458;BME280;57919;56.194;95.716;2023-02-11T08:46:50;101375.31;;;-14.84;56.68
70458;BME280;57919;56.194;95.716;2023-02-11T08:56:52;101376.03;;;-14.68;59.04
70458;BME280;57919;56.194;95.716;2023-02-11T09:06:54;101381.28;;;-14.49;57.43
70458;BME280;57919;56.194;95.716;2023-02-11T09:16:56;101387.75;;;-14.59;57.35
70458;BME280;57919;56.194;95.716;2023-02-11T09:26:58;101389.25;;;-14.82;57.94
70458;BME280;57919;56.194;95.716;2023-02-11T09:37:00;101400.81;;;-14.93;58.04
70458;BME280;57919;56.194;95.716;2023-02-11T09:47:34;101403.72;;;-15.05;58.87
70458;BME280;57919;56.194;95.716;2023-02-11T09:57:35;101404.16;;;-15.13;58.93
70458;BME280;57919;56.194;95.716;2023-02-11T10:28:32;101412.34;;;-15.40;59.91
70458;BME280;57919;56.194;95.716;2023-02-11T10:38:35;101417.78;;;-15.69;59.39
70458;BME280;57919;56.194;95.716;2023-02-11T10:48:45;101434.22;;;-15.85;59.55
70458;BME280;57919;56.194;95.716;2023-02-11T11:09:27;101442.00;;;-16.17;60.07
70458;BME280;57919;56.194;95.716;2023-02-11T11:19:33;101435.56;;;-16.40;59.61
70458;BME280;57919;56.194;95.716;2023-02-11T11:29:46;101462.13;;;-16.28;60.73
70458;BME280;57919;56.194;95.716;2023-02-11T11:39:56;101478.31;;;-16.32;60.92
70458;BME280;57919;56.194;95.716;2023-02-11T12:00:13;101493.28;;;-15.79;60.68
70458;BME280;57919;56.194;95.716;2023-02-11T12:10:34;101530.22;;;-16.91;58.93
70458;BME280;57919;56.194;95.716;2023-02-11T12:21:07;101552.88;;;-17.87;59.06
70458;BME280;57919;56.194;95.716;2023-02-11T12:31:36;101532.03;;;-18.84;59.29
70458;BME280;57919;56.194;95.716;2023-02-11T12:41:51;101574.09;;;-18.98;59.16
70458;BME280;57919;56.194;95.716;2023-02-11T13:03:13;101562.19;;;-19.34;59.45
70458;BME280;57919;56.194;95.716;2023-02-11T13:13:26;101573.63;;;-19.55;58.92
70458;BME280;57919;56.194;95.716;2023-02-11T13:23:50;101568.94;;;-19.86;59.22
70458;BME280;57919;56.194;95.716;2023-02-11T13:33:58;101571.00;;;-20.17;58.92
70458;BME280;57919;56.194;95.716;2023-02-11T13:54:24;101584.00;;;-20.27;58.80
70458;BME280;57919;56.194;95.716;2023-02-11T14:04:28;101595.91;;;-20.41;58.90
70458;BME280;57919;56.194;95.716;2023-02-11T14:25:21;101621.19;;;-20.70;58.99
70458;BME280;57919;56.194;95.716;2023-02-11T14:45:52;101628.47;;;-21.10;59.04
70458;BME280;57919;56.194;95.716;2023-02-11T14:55:55;101635.53;;;-21.07;59.50
70458;BME280;57919;56.194;95.716;2023-02-11T15:16:08;101608.31;;;-21.39;59.08
70458;BME280;57919;56.194;95.716;2023-02-11T15:26:13;101659.81;;;-21.37;59.36
70458;BME280;57919;56.194;95.716;2023-02-11T15:36:17;101654.25;;;-21.53;58.80
70458;BME280;57919;56.194;95.716;2023-02-11T15:46:21;101662.19;;;-21.72;58.94
70458;BME280;57919;56.194;95.716;2023-02-11T15:56:38;101650.13;;;-21.73;58.81
70458;BME280;57919;56.194;95.716;2023-02-11T16:06:45;101651.44;;;-21.78;59.06
70458;BME280;57919;56.194;95.716;2023-02-11T16:16:52;101664.22;;;-21.68;59.45
70458;BME280;57919;56.194;95.716;2023-02-11T16:26:59;101631.97;;;-21.86;59.22
70458;BME280;57919;56.194;95.716;2023-02-11T16:37:04;101663.50;;;-21.77;59.06
70458;BME280;57919;56.194;95.716;2023-02-11T16:47:18;101674.72;;;-21.87;59.12
70458;BME280;57919;56.194;95.716;2023-02-11T16:57:22;101659.34;;;-22.19;59.42
70458;BME280;57919;56.194;95.716;2023-02-11T17:07:25;101692.94;;;-22.16;59.18
70458;BME280;57919;56.194;95.716;2023-02-11T17:17:27;101697.13;;;-22.48;59.05
70458;BME280;57919;56.194;95.716;2023-02-11T17:27:30;101671.81;;;-22.86;59.49
70458;BME280;57919;56.194;95.716;2023-02-11T17:37:32;101697.25;;;-22.57;59.18
70458;BME280;57919;56.194;95.716;2023-02-11T17:47:34;101710.44;;;-22.52;60.00
70458;BME280;57919;56.194;95.716;2023-02-11T17:57:36;101710.00;;;-22.16;60.77
70458;BME280;57919;56.194;95.716;2023-02-11T18:07:38;101718.75;;;-22.35;59.89
70458;BME280;57919;56.194;95.716;2023-02-11T18:17:40;101734.31;;;-23.04;59.54
70458;BME280;57919;56.194;95.716;2023-02-11T18:27:42;101723.56;;;-23.00;59.66
70458;BME280;57919;56.194;95.716;2023-02-11T18:37:44;101694.09;;;-23.05;59.49
70458;BME280;57919;56.194;95.716;2023-02-11T18:47:46;101720.88;;;-23.02;59.57
70458;BME280;57919;56.194;95.716;2023-02-11T18:57:48;101712.25;;;-23.33;59.16
70458;BME280;57919;56.194;95.716;2023-02-11T19:07:50;101682.19;;;-23.95;58.71
70458;BME280;57919;56.194;95.716;2023-02-11T19:17:52;101719.72;;;-23.75;59.29
70458;BME280;57919;56.194;95.716;2023-02-11T19:27:54;101713.28;;;-23.90;59.00
70458;BME280;57919;56.194;95.716;2023-02-11T19:37:56;101731.75;;;-24.03;59.13
70458;BME280;57919;56.194;95.716;2023-02-11T19:47:58;101735.25;;;-23.92;58.81
70458;BME280;57919;56.194;95.716;2023-02-11T19:57:59;101727.97;;;-24.16;59.22
70458;BME280;57919;56.194;95.716;2023-02-11T20:08:01;101743.84;;;-24.39;58.74
70458;BME280;57919;56.194;95.716;2023-02-11T20:18:03;101730.19;;;-24.58;58.83
70458;BME280;57919;56.194;95.716;2023-02-11T20:28:05;101759.00;;;-24.22;59.04
70458;BME280;57919;56.194;95.716;2023-02-11T20:38:07;101714.34;;;-24.36;59.11
70458;BME280;57919;56.194;95.716;2023-02-11T20:48:09;101721.00;;;-24.38;58.67
70458;BME280;57919;56.194;95.716;2023-02-11T20:58:11;101714.72;;;-24.41;59.03
70458;BME280;57919;56.194;95.716;2023-02-11T21:08:13;101746.47;;;-24.29;58.58
70458;BME280;57919;56.194;95.716;2023-02-11T21:18:15;101755.31;;;-24.44;59.02
70458;BME280;57919;56.194;95.716;2023-02-11T21:28:16;101773.19;;;-24.63;59.17
70458;BME280;57919;56.194;95.716;2023-02-11T21:38:19;101760.22;;;-24.56;59.14
70458;BME280;57919;56.194;95.716;2023-02-11T21:48:21;101773.00;;;-24.37;59.25
70458;BME280;57919;56.194;95.716;2023-02-11T21:58:24;101777.84;;;-24.40;59.08
70458;BME280;57919;56.194;95.716;2023-02-11T22:08:26;101792.22;;;-24.32;58.93
70458;BME280;57919;56.194;95.716;2023-02-11T22:18:31;101798.56;;;-24.37;59.09
70458;BME280;57919;56.194;95.716;2023-02-11T22:28:33;101804.91;;;-24.42;58.70
70458;BME280;57919;56.194;95.716;2023-02-11T22:38:37;101796.97;;;-24.45;58.80
70458;BME280;57919;56.194;95.716;2023-02-11T22:48:39;101799.63;;;-24.63;58.91
70458;BME280;57919;56.194;95.716;2023-02-11T22:58:41;101795.88;;;-24.85;58.71
70458;BME280;57919;56.194;95.716;2023-02-11T23:08:44;101813.16;;;-24.64;58.73
70458;BME280;57919;56.194;95.716;2023-02-11T23:18:47;101815.88;;;-24.62;58.82
70458;BME280;57919;56.194;95.716;2023-02-11T23:28:50;101832.94;;;-24.52;59.28
70458;BME280;57919;56.194;95.716;2023-02-11T23:38:52;101839.50;;;-24.46;59.08
70458;BME280;57919;56.194;95.716;2023-02-11T23:48:54;101820.16;;;-24.52;59.12
70458;BME280;57919;56.194;95.716;2023-02-11T23:58:57;101860.22;;;-24.24;59.25
